GTI2060 KILM-KJAX
Flight info
| Callsign | GTI2060 |
|---|---|
| Flight time | 0h 59m |
| Altitude | 34000 |
| Route | ESENT LUNNI2 |
| Aircraft | B77L/H-SDE1E2E3FGHIJ2J3J4J5M1RWXY/LB1D1 |
Departure
| Time | 2026-04-23 03:38 |
|---|---|
| Airport | Wilmington International Airport (KILM) |
Arrival
| Time | 2026-04-23 04:38 |
|---|---|
| Airport | Jacksonville International Airport (KJAX) |
| Time | Latitude | Longitude | Altitude | Speed | Heading |
|---|---|---|---|---|---|
| 2026-04-23 02:54 | 34.27089 | -77.90778 | 45 ft | 0 kts | 189° |
| 2026-04-23 03:24 | 34.27098 | -77.90776 | 44 ft | 4 kts | 181° |
| 2026-04-23 03:24 | 34.27120 | -77.90784 | 44 ft | 4 kts | 124° |
| 2026-04-23 03:24 | 34.27127 | -77.90807 | 42 ft | 0 kts | 92° |
| 2026-04-23 03:28 | 34.27127 | -77.90806 | 42 ft | 0 kts | 92° |
| 2026-04-23 03:28 | 34.27126 | -77.90793 | 43 ft | 3 kts | 92° |
| 2026-04-23 03:28 | 34.27125 | -77.90758 | 45 ft | 6 kts | 93° |
| 2026-04-23 03:28 | 34.27122 | -77.90698 | 45 ft | 9 kts | 93° |
| 2026-04-23 03:29 | 34.27118 | -77.90613 | 45 ft | 11 kts | 96° |
| 2026-04-23 03:29 | 34.27103 | -77.90507 | 45 ft | 14 kts | 100° |
| 2026-04-23 03:29 | 34.27091 | -77.90376 | 45 ft | 17 kts | 92° |
| 2026-04-23 03:29 | 34.27091 | -77.90225 | 45 ft | 19 kts | 90° |
| 2026-04-23 03:30 | 34.27109 | -77.90059 | 45 ft | 21 kts | 69° |
| 2026-04-23 03:30 | 34.27204 | -77.89911 | 45 ft | 24 kts | 49° |
| 2026-04-23 03:30 | 34.27314 | -77.89759 | 45 ft | 25 kts | 49° |
| 2026-04-23 03:30 | 34.27440 | -77.89667 | 45 ft | 22 kts | 24° |
| 2026-04-23 03:31 | 34.27555 | -77.89529 | 45 ft | 25 kts | 49° |
| 2026-04-23 03:31 | 34.27655 | -77.89390 | 44 ft | 15 kts | 49° |
| 2026-04-23 03:31 | 34.27728 | -77.89291 | 44 ft | 16 kts | 48° |
| 2026-04-23 03:31 | 34.27754 | -77.89198 | 44 ft | 11 kts | 113° |
| 2026-04-23 03:32 | 34.27721 | -77.89157 | 44 ft | 3 kts | 138° |
| 2026-04-23 03:32 | 34.27718 | -77.89154 | 44 ft | 0 kts | 138° |
| 2026-04-23 03:33 | 34.27715 | -77.89151 | 44 ft | 2 kts | 138° |
| 2026-04-23 03:33 | 34.27695 | -77.89129 | 44 ft | 6 kts | 138° |
| 2026-04-23 03:33 | 34.27654 | -77.89091 | 43 ft | 9 kts | 158° |
| 2026-04-23 03:33 | 34.27611 | -77.89114 | 40 ft | 0 kts | 222° |
| 2026-04-23 03:37 | 34.27610 | -77.89115 | 43 ft | 1 kts | 222° |
| 2026-04-23 03:37 | 34.27458 | -77.89312 | 43 ft | 83 kts | 229° |
| 2026-04-23 03:38 | 34.26835 | -77.90151 | 103 ft | 178 kts | 228° |
| 2026-04-23 03:38 | 34.25955 | -77.91405 | 837 ft | 205 kts | 231° |
| 2026-04-23 03:38 | 34.25060 | -77.92642 | 2339 ft | 201 kts | 231° |
| 2026-04-23 03:38 | 34.24139 | -77.93988 | 2988 ft | 219 kts | 233° |
| 2026-04-23 03:39 | 34.23155 | -77.95470 | 3767 ft | 235 kts | 234° |
| 2026-04-23 03:39 | 34.22110 | -77.97050 | 4587 ft | 247 kts | 235° |
| 2026-04-23 03:39 | 34.21013 | -77.98699 | 5517 ft | 256 kts | 235° |
| 2026-04-23 03:39 | 34.19879 | -78.00402 | 6456 ft | 263 kts | 235° |
| 2026-04-23 03:40 | 34.18714 | -78.02141 | 7389 ft | 270 kts | 235° |
| 2026-04-23 03:40 | 34.17513 | -78.03933 | 8265 ft | 279 kts | 236° |
| 2026-04-23 03:40 | 34.16274 | -78.05779 | 9159 ft | 287 kts | 236° |
| 2026-04-23 03:40 | 34.15003 | -78.07672 | 10059 ft | 294 kts | 235° |
| 2026-04-23 03:41 | 34.13703 | -78.09611 | 10678 ft | 311 kts | 234° |
| 2026-04-23 03:41 | 34.12275 | -78.11736 | 10927 ft | 341 kts | 234° |
| 2026-04-23 03:41 | 34.10716 | -78.14051 | 11199 ft | 369 kts | 233° |
| 2026-04-23 03:41 | 34.09067 | -78.16490 | 11980 ft | 379 kts | 233° |
| 2026-04-23 03:42 | 34.07389 | -78.18968 | 12947 ft | 384 kts | 232° |
| 2026-04-23 03:42 | 34.05690 | -78.21473 | 13979 ft | 388 kts | 232° |
| 2026-04-23 03:42 | 34.03975 | -78.24001 | 14889 ft | 391 kts | 232° |
| 2026-04-23 03:42 | 34.02245 | -78.26551 | 15782 ft | 395 kts | 233° |
| 2026-04-23 03:43 | 34.00519 | -78.29095 | 16647 ft | 400 kts | 232° |
| 2026-04-23 03:43 | 33.98747 | -78.31707 | 17493 ft | 405 kts | 233° |
| 2026-04-23 03:43 | 33.96955 | -78.34345 | 18337 ft | 409 kts | 233° |
| 2026-04-23 03:43 | 33.95142 | -78.37015 | 19070 ft | 414 kts | 232° |
| 2026-04-23 03:44 | 33.93307 | -78.39715 | 19795 ft | 418 kts | 232° |
| 2026-04-23 03:44 | 33.91455 | -78.42439 | 20505 ft | 422 kts | 233° |
| 2026-04-23 03:44 | 33.89584 | -78.45184 | 21250 ft | 426 kts | 232° |
| 2026-04-23 03:44 | 33.87695 | -78.47956 | 21899 ft | 432 kts | 233° |
| 2026-04-23 03:45 | 33.85803 | -78.50729 | 22581 ft | 436 kts | 233° |
| 2026-04-23 03:45 | 33.83869 | -78.53564 | 23258 ft | 441 kts | 234° |
| 2026-04-23 03:45 | 33.81913 | -78.56428 | 23898 ft | 445 kts | 232° |
| 2026-04-23 03:45 | 33.79935 | -78.59324 | 24440 ft | 450 kts | 233° |
| 2026-04-23 03:46 | 33.77936 | -78.62248 | 24940 ft | 456 kts | 233° |
| 2026-04-23 03:46 | 33.76596 | -78.64207 | 25282 ft | 459 kts | 233° |
| 2026-04-23 03:46 | 33.74556 | -78.67185 | 25797 ft | 464 kts | 233° |
| 2026-04-23 03:46 | 33.72495 | -78.70191 | 26302 ft | 469 kts | 232° |
| 2026-04-23 03:47 | 33.70411 | -78.73229 | 26808 ft | 473 kts | 232° |
| 2026-04-23 03:47 | 33.67618 | -78.77294 | 27455 ft | 480 kts | 233° |
| 2026-04-23 03:47 | 33.65480 | -78.80404 | 27921 ft | 486 kts | 233° |
| 2026-04-23 03:47 | 33.63321 | -78.83543 | 28431 ft | 490 kts | 233° |
| 2026-04-23 03:48 | 33.61143 | -78.86704 | 28930 ft | 493 kts | 233° |
| 2026-04-23 03:48 | 33.59691 | -78.88811 | 29263 ft | 496 kts | 233° |
| 2026-04-23 03:48 | 33.57485 | -78.92010 | 29702 ft | 500 kts | 233° |
| 2026-04-23 03:48 | 33.55264 | -78.95227 | 30231 ft | 501 kts | 233° |
| 2026-04-23 03:49 | 33.53039 | -78.98445 | 30781 ft | 500 kts | 233° |
| 2026-04-23 03:49 | 33.50827 | -79.01642 | 31423 ft | 497 kts | 233° |
| 2026-04-23 03:49 | 33.47913 | -79.05848 | 32193 ft | 494 kts | 233° |
| 2026-04-23 03:49 | 33.46431 | -79.07987 | 32544 ft | 494 kts | 233° |
| 2026-04-23 03:50 | 33.44239 | -79.11148 | 33049 ft | 493 kts | 233° |
| 2026-04-23 03:50 | 33.42080 | -79.14260 | 33578 ft | 492 kts | 233° |
| 2026-04-23 03:50 | 33.39898 | -79.17402 | 34111 ft | 490 kts | 233° |
| 2026-04-23 03:50 | 33.37708 | -79.20554 | 34194 ft | 495 kts | 233° |
| 2026-04-23 03:51 | 33.33306 | -79.26880 | 34189 ft | 492 kts | 233° |
| 2026-04-23 03:51 | 33.28947 | -79.33128 | 34189 ft | 488 kts | 233° |
| 2026-04-23 03:52 | 33.24602 | -79.39349 | 34198 ft | 488 kts | 233° |
| 2026-04-23 03:52 | 33.20280 | -79.45529 | 34180 ft | 488 kts | 233° |
| 2026-04-23 03:53 | 33.15918 | -79.51753 | 34188 ft | 489 kts | 233° |
| 2026-04-23 03:53 | 33.11551 | -79.57974 | 34180 ft | 490 kts | 233° |
| 2026-04-23 03:54 | 33.07167 | -79.64208 | 34181 ft | 491 kts | 233° |
| 2026-04-23 03:54 | 33.02805 | -79.70401 | 34190 ft | 491 kts | 232° |
| 2026-04-23 03:55 | 32.98407 | -79.76633 | 34194 ft | 492 kts | 232° |
| 2026-04-23 03:55 | 32.94005 | -79.82862 | 34189 ft | 491 kts | 232° |
| 2026-04-23 03:56 | 32.89601 | -79.89082 | 34197 ft | 491 kts | 232° |
| 2026-04-23 03:56 | 32.85227 | -79.95249 | 34190 ft | 491 kts | 232° |
| 2026-04-23 03:57 | 32.80821 | -80.01451 | 34196 ft | 491 kts | 232° |
| 2026-04-23 03:57 | 32.76416 | -80.07642 | 34201 ft | 490 kts | 232° |
| 2026-04-23 03:58 | 32.72014 | -80.13818 | 34200 ft | 489 kts | 232° |
| 2026-04-23 03:58 | 32.67646 | -80.19935 | 34190 ft | 488 kts | 232° |
| 2026-04-23 03:59 | 32.63171 | -80.25992 | 34190 ft | 490 kts | 226° |
| 2026-04-23 03:59 | 32.57739 | -80.30886 | 34202 ft | 493 kts | 213° |
| 2026-04-23 04:00 | 32.51599 | -80.34553 | 34189 ft | 494 kts | 207° |
| 2026-04-23 04:00 | 32.45424 | -80.38011 | 34190 ft | 494 kts | 207° |
| 2026-04-23 04:01 | 32.39218 | -80.41521 | 34189 ft | 494 kts | 207° |
| 2026-04-23 04:01 | 32.33024 | -80.45061 | 34190 ft | 494 kts | 207° |
| 2026-04-23 04:02 | 32.26835 | -80.48606 | 34185 ft | 494 kts | 207° |
| 2026-04-23 04:02 | 32.20648 | -80.52146 | 34186 ft | 494 kts | 207° |
| 2026-04-23 04:03 | 32.14507 | -80.55651 | 34179 ft | 493 kts | 207° |
| 2026-04-23 04:03 | 32.08329 | -80.59171 | 34186 ft | 493 kts | 207° |
| 2026-04-23 04:04 | 32.02156 | -80.62684 | 34190 ft | 493 kts | 207° |
| 2026-04-23 04:04 | 31.95980 | -80.66192 | 34185 ft | 492 kts | 207° |
| 2026-04-23 04:05 | 31.89855 | -80.69666 | 34182 ft | 492 kts | 207° |
| 2026-04-23 04:05 | 31.83684 | -80.73162 | 34186 ft | 492 kts | 207° |
| 2026-04-23 04:06 | 31.77515 | -80.76651 | 34179 ft | 492 kts | 207° |
| 2026-04-23 04:06 | 31.71350 | -80.80132 | 34183 ft | 492 kts | 207° |
| 2026-04-23 04:07 | 31.65224 | -80.83586 | 34181 ft | 491 kts | 207° |
| 2026-04-23 04:07 | 31.59063 | -80.87055 | 34189 ft | 491 kts | 207° |
| 2026-04-23 04:08 | 31.52909 | -80.90515 | 34192 ft | 491 kts | 207° |
| 2026-04-23 04:08 | 31.46751 | -80.93971 | 34197 ft | 490 kts | 207° |
| 2026-04-23 04:09 | 31.40641 | -80.97397 | 34189 ft | 490 kts | 207° |
| 2026-04-23 04:09 | 31.34487 | -81.00841 | 34189 ft | 490 kts | 207° |
| 2026-04-23 04:10 | 31.28341 | -81.04276 | 34198 ft | 490 kts | 207° |
| 2026-04-23 04:10 | 31.22238 | -81.07681 | 34067 ft | 479 kts | 207° |
| 2026-04-23 04:11 | 31.19230 | -81.09357 | 33544 ft | 477 kts | 207° |
| 2026-04-23 04:11 | 31.16253 | -81.11015 | 33102 ft | 471 kts | 207° |
| 2026-04-23 04:11 | 31.13345 | -81.12634 | 32610 ft | 467 kts | 207° |
| 2026-04-23 04:11 | 31.10429 | -81.14256 | 32140 ft | 462 kts | 207° |
| 2026-04-23 04:12 | 31.07540 | -81.15863 | 31674 ft | 458 kts | 208° |
| 2026-04-23 04:12 | 31.04677 | -81.17454 | 31205 ft | 454 kts | 208° |
| 2026-04-23 04:12 | 31.01841 | -81.19029 | 30755 ft | 450 kts | 208° |
| 2026-04-23 04:12 | 30.99025 | -81.20592 | 30300 ft | 446 kts | 208° |
| 2026-04-23 04:13 | 30.96234 | -81.22140 | 29766 ft | 442 kts | 208° |
| 2026-04-23 04:13 | 30.93467 | -81.23674 | 29265 ft | 438 kts | 208° |
| 2026-04-23 04:13 | 30.90768 | -81.25169 | 28822 ft | 433 kts | 208° |
| 2026-04-23 04:13 | 30.88060 | -81.26670 | 28350 ft | 429 kts | 208° |
| 2026-04-23 04:14 | 30.85379 | -81.28153 | 27903 ft | 425 kts | 208° |
| 2026-04-23 04:14 | 30.82731 | -81.29630 | 27444 ft | 417 kts | 211° |
| 2026-04-23 04:14 | 30.80437 | -81.31590 | 27079 ft | 404 kts | 231° |
| 2026-04-23 04:14 | 30.78824 | -81.34171 | 26815 ft | 388 kts | 238° |
| 2026-04-23 04:15 | 30.77312 | -81.36746 | 26483 ft | 384 kts | 238° |
| 2026-04-23 04:15 | 30.75816 | -81.39296 | 26148 ft | 379 kts | 238° |
| 2026-04-23 04:15 | 30.72880 | -81.44331 | 25517 ft | 375 kts | 238° |
| 2026-04-23 04:16 | 30.71419 | -81.46815 | 25223 ft | 381 kts | 238° |
| 2026-04-23 04:16 | 30.69876 | -81.49376 | 24920 ft | 392 kts | 237° |
| 2026-04-23 04:16 | 30.68288 | -81.51976 | 24598 ft | 394 kts | 237° |
| 2026-04-23 04:16 | 30.66700 | -81.54549 | 24295 ft | 389 kts | 237° |
| 2026-04-23 04:17 | 30.65471 | -81.57284 | 23700 ft | 382 kts | 257° |
| 2026-04-23 04:17 | 30.65308 | -81.60324 | 23079 ft | 378 kts | 279° |
| 2026-04-23 04:17 | 30.65967 | -81.63254 | 22638 ft | 374 kts | 290° |
| 2026-04-23 04:17 | 30.66883 | -81.66062 | 22210 ft | 370 kts | 292° |
| 2026-04-23 04:18 | 30.67789 | -81.68799 | 21781 ft | 364 kts | 289° |
| 2026-04-23 04:18 | 30.68549 | -81.71587 | 21153 ft | 364 kts | 288° |
| 2026-04-23 04:18 | 30.69308 | -81.74402 | 20635 ft | 365 kts | 288° |
| 2026-04-23 04:18 | 30.70109 | -81.77181 | 20227 ft | 361 kts | 293° |
| 2026-04-23 04:19 | 30.71223 | -81.79780 | 19846 ft | 358 kts | 300° |
| 2026-04-23 04:19 | 30.72591 | -81.82193 | 19451 ft | 357 kts | 305° |
| 2026-04-23 04:19 | 30.74068 | -81.84507 | 19029 ft | 356 kts | 306° |
| 2026-04-23 04:19 | 30.75569 | -81.86788 | 18610 ft | 355 kts | 307° |
| 2026-04-23 04:20 | 30.77069 | -81.89050 | 18209 ft | 352 kts | 307° |
| 2026-04-23 04:20 | 30.78541 | -81.91262 | 17830 ft | 351 kts | 307° |
| 2026-04-23 04:20 | 30.80036 | -81.93503 | 17456 ft | 350 kts | 307° |
| 2026-04-23 04:20 | 30.81528 | -81.95737 | 17138 ft | 349 kts | 307° |
| 2026-04-23 04:21 | 30.83013 | -81.97960 | 16827 ft | 347 kts | 307° |
| 2026-04-23 04:21 | 30.84490 | -82.00170 | 16514 ft | 345 kts | 307° |
| 2026-04-23 04:21 | 30.85949 | -82.02379 | 16223 ft | 341 kts | 304° |
| 2026-04-23 04:21 | 30.86982 | -82.04833 | 16015 ft | 337 kts | 284° |
| 2026-04-23 04:22 | 30.87205 | -82.07528 | 15999 ft | 338 kts | 264° |
| 2026-04-23 04:22 | 30.86659 | -82.10200 | 16022 ft | 342 kts | 251° |
| 2026-04-23 04:22 | 30.85685 | -82.12692 | 15999 ft | 345 kts | 238° |
| 2026-04-23 04:22 | 30.84111 | -82.14779 | 16022 ft | 345 kts | 219° |
| 2026-04-23 04:23 | 30.82042 | -82.16184 | 16013 ft | 346 kts | 201° |
| 2026-04-23 04:23 | 30.79685 | -82.16755 | 16015 ft | 348 kts | 182° |
| 2026-04-23 04:23 | 30.77265 | -82.16468 | 15673 ft | 357 kts | 167° |
| 2026-04-23 04:23 | 30.74901 | -82.15430 | 14700 ft | 364 kts | 152° |
| 2026-04-23 04:24 | 30.72881 | -82.13739 | 13758 ft | 354 kts | 135° |
| 2026-04-23 04:24 | 30.71427 | -82.11500 | 12794 ft | 344 kts | 116° |
| 2026-04-23 04:24 | 30.70742 | -82.08894 | 11877 ft | 334 kts | 94° |
| 2026-04-23 04:24 | 30.70949 | -82.06308 | 11031 ft | 323 kts | 71° |
| 2026-04-23 04:25 | 30.71997 | -82.04067 | 10222 ft | 312 kts | 48° |
| 2026-04-23 04:25 | 30.73391 | -82.02252 | 9865 ft | 287 kts | 57° |
| 2026-04-23 04:25 | 30.74064 | -82.00177 | 9756 ft | 271 kts | 85° |
| 2026-04-23 04:25 | 30.73828 | -81.97969 | 9531 ft | 283 kts | 111° |
| 2026-04-23 04:26 | 30.72929 | -81.95933 | 9238 ft | 284 kts | 121° |
| 2026-04-23 04:26 | 30.71878 | -81.93999 | 9014 ft | 278 kts | 122° |
| 2026-04-23 04:26 | 30.70832 | -81.92133 | 8784 ft | 276 kts | 123° |
| 2026-04-23 04:26 | 30.69783 | -81.90269 | 8579 ft | 273 kts | 123° |
| 2026-04-23 04:27 | 30.68766 | -81.88477 | 8563 ft | 269 kts | 123° |
| 2026-04-23 04:27 | 30.67718 | -81.86641 | 8442 ft | 273 kts | 123° |
| 2026-04-23 04:27 | 30.66618 | -81.84850 | 8419 ft | 273 kts | 134° |
| 2026-04-23 04:28 | 30.63125 | -81.83408 | 8444 ft | 280 kts | 189° |
| 2026-04-23 04:28 | 30.61310 | -81.84172 | 8332 ft | 278 kts | 211° |
| 2026-04-23 04:28 | 30.59693 | -81.85399 | 8087 ft | 275 kts | 216° |
| 2026-04-23 04:28 | 30.58332 | -81.86904 | 7678 ft | 270 kts | 234° |
| 2026-04-23 04:29 | 30.57296 | -81.88717 | 7281 ft | 268 kts | 240° |
| 2026-04-23 04:29 | 30.56557 | -81.90653 | 6828 ft | 267 kts | 253° |
| 2026-04-23 04:29 | 30.56157 | -81.92736 | 6391 ft | 262 kts | 262° |
| 2026-04-23 04:29 | 30.55677 | -81.94782 | 5887 ft | 265 kts | 249° |
| 2026-04-23 04:30 | 30.54909 | -81.96711 | 5534 ft | 262 kts | 240° |
| 2026-04-23 04:30 | 30.53803 | -81.98370 | 5219 ft | 258 kts | 223° |
| 2026-04-23 04:30 | 30.52386 | -81.99582 | 5015 ft | 249 kts | 210° |
| 2026-04-23 04:30 | 30.50883 | -82.00500 | 4799 ft | 240 kts | 205° |
| 2026-04-23 04:31 | 30.49381 | -82.01288 | 4564 ft | 232 kts | 204° |
| 2026-04-23 04:31 | 30.47899 | -82.01829 | 4148 ft | 226 kts | 180° |
| 2026-04-23 04:31 | 30.46407 | -82.01386 | 3731 ft | 224 kts | 149° |
| 2026-04-23 04:31 | 30.45118 | -82.00433 | 3315 ft | 218 kts | 153° |
| 2026-04-23 04:32 | 30.43907 | -81.99427 | 2867 ft | 214 kts | 126° |
| 2026-04-23 04:32 | 30.43480 | -81.97812 | 2492 ft | 209 kts | 96° |
| 2026-04-23 04:32 | 30.43314 | -81.96181 | 2194 ft | 202 kts | 103° |
| 2026-04-23 04:32 | 30.43027 | -81.94636 | 2063 ft | 190 kts | 107° |
| 2026-04-23 04:33 | 30.42729 | -81.93132 | 2006 ft | 195 kts | 97° |
| 2026-04-23 04:33 | 30.43026 | -81.91600 | 2015 ft | 203 kts | 70° |
| 2026-04-23 04:33 | 30.43525 | -81.90065 | 2005 ft | 204 kts | 74° |
| 2026-04-23 04:33 | 30.43975 | -81.88519 | 1996 ft | 201 kts | 75° |
| 2026-04-23 04:34 | 30.44432 | -81.87000 | 2002 ft | 197 kts | 74° |
| 2026-04-23 04:34 | 30.44886 | -81.85509 | 2003 ft | 196 kts | 74° |
| 2026-04-23 04:34 | 30.45335 | -81.84038 | 1998 ft | 190 kts | 74° |
| 2026-04-23 04:34 | 30.45770 | -81.82617 | 1986 ft | 185 kts | 74° |
| 2026-04-23 04:35 | 30.46195 | -81.81222 | 2015 ft | 183 kts | 74° |
| 2026-04-23 04:35 | 30.46627 | -81.79802 | 1785 ft | 190 kts | 74° |
| 2026-04-23 04:35 | 30.47053 | -81.78413 | 1523 ft | 179 kts | 75° |
| 2026-04-23 04:35 | 30.47448 | -81.77120 | 1312 ft | 164 kts | 76° |
| 2026-04-23 04:36 | 30.47830 | -81.75861 | 1107 ft | 166 kts | 76° |
| 2026-04-23 04:36 | 30.48211 | -81.74617 | 883 ft | 160 kts | 74° |
| 2026-04-23 04:36 | 30.48570 | -81.73435 | 670 ft | 152 kts | 73° |
| 2026-04-23 04:36 | 30.48919 | -81.72292 | 477 ft | 151 kts | 71° |
| 2026-04-23 04:37 | 30.49261 | -81.71143 | 274 ft | 149 kts | 72° |
| 2026-04-23 04:37 | 30.49599 | -81.70033 | 101 ft | 141 kts | 69° |
| 2026-04-23 04:37 | 30.49920 | -81.69014 | 43 ft | 130 kts | 70° |
| 2026-04-23 04:37 | 30.50184 | -81.68160 | 44 ft | 68 kts | 70° |
| 2026-04-23 04:38 | 30.50289 | -81.67826 | 41 ft | 21 kts | 70° |
| 2026-04-23 04:38 | 30.50335 | -81.67668 | 39 ft | 21 kts | 78° |
| 2026-04-23 04:38 | 30.50305 | -81.67597 | 38 ft | 18 kts | 154° |
| 2026-04-23 04:38 | 30.50194 | -81.67578 | 36 ft | 16 kts | 218° |
| 2026-04-23 04:39 | 30.50157 | -81.67667 | 38 ft | 16 kts | 251° |
| 2026-04-23 04:39 | 30.50146 | -81.67705 | 39 ft | 5 kts | 253° |
| 2026-04-23 04:39 | 30.51320 | -82.00253 | 4875 ft | 243 kts | 206° |
| 2026-04-23 04:40 | 30.44656 | -81.86263 | 2019 ft | 196 kts | 74° |
| 2026-04-23 04:40 | 30.45824 | -81.82438 | 1989 ft | 184 kts | 74° |
| 2026-04-23 04:40 | 30.46248 | -81.81046 | 2013 ft | 184 kts | 74° |
| 2026-04-23 04:40 | 30.46678 | -81.79636 | 1762 ft | 189 kts | 74° |
| 2026-04-23 04:41 | 30.47105 | -81.78243 | 1499 ft | 177 kts | 75° |
| 2026-04-23 04:41 | 30.47497 | -81.76960 | 1287 ft | 164 kts | 76° |
| 2026-04-23 04:41 | 30.47879 | -81.75700 | 1081 ft | 166 kts | 76° |
| 2026-04-23 04:41 | 30.48258 | -81.74463 | 838 ft | 158 kts | 74° |
| 2026-04-23 04:42 | 30.48615 | -81.73288 | 652 ft | 152 kts | 73° |
| 2026-04-23 04:42 | 30.48964 | -81.72145 | 450 ft | 151 kts | 71° |
| 2026-04-23 04:42 | 30.49302 | -81.70999 | 246 ft | 149 kts | 72° |
| 2026-04-23 04:42 | 30.49639 | -81.69912 | 86 ft | 140 kts | 69° |
| 2026-04-23 04:43 | 30.49960 | -81.68889 | 40 ft | 129 kts | 70° |
| 2026-04-23 04:43 | 30.50202 | -81.68103 | 44 ft | 49 kts | 70° |
| 2026-04-23 04:43 | 30.49665 | -81.69832 | 69 ft | 138 kts | 69° |
| 2026-04-23 04:43 | 30.49823 | -81.69327 | 45 ft | 134 kts | 70° |
| 2026-04-23 04:44 | 30.49767 | -81.69509 | 46 ft | 134 kts | 70° |
| 2026-04-23 04:44 | 30.49688 | -81.69762 | 61 ft | 137 kts | 70° |
| 2026-04-23 04:44 | 30.50000 | -81.68761 | 41 ft | 127 kts | 70° |
| 2026-04-23 04:45 | 30.49135 | -81.71581 | 357 ft | 150 kts | 72° |
| 2026-04-23 04:45 | 30.49458 | -81.70461 | 150 ft | 146 kts | 70° |
| 2026-04-23 04:45 | 30.49798 | -81.69409 | 45 ft | 133 kts | 70° |
| 2026-04-23 04:45 | 30.49344 | -81.70848 | 217 ft | 148 kts | 72° |
| 2026-04-23 04:46 | 30.49688 | -81.69762 | 61 ft | 137 kts | 70° |
| 2026-04-23 04:46 | 30.50001 | -81.68760 | 41 ft | 127 kts | 70° |
| 2026-04-23 04:46 | 30.49580 | -81.70087 | 105 ft | 141 kts | 69° |
| 2026-04-23 04:46 | 30.49905 | -81.69064 | 44 ft | 130 kts | 70° |
| 2026-04-23 04:47 | 30.49523 | -81.70259 | 122 ft | 144 kts | 69° |
| 2026-04-23 04:47 | 30.49480 | -81.70391 | 141 ft | 145 kts | 69° |
| 2026-04-23 04:47 | 30.49813 | -81.69359 | 45 ft | 132 kts | 70° |
| 2026-04-23 04:47 | 30.50111 | -81.68395 | 46 ft | 116 kts | 70° |
| 2026-04-23 04:48 | 30.49838 | -81.69280 | 44 ft | 132 kts | 70° |
| 2026-04-23 04:48 | 30.50132 | -81.68330 | 44 ft | 108 kts | 70° |
| 2026-04-23 04:48 | 30.50270 | -81.67888 | 42 ft | 44 kts | 70° |
| 2026-04-23 04:48 | 30.50325 | -81.67709 | 40 ft | 21 kts | 70° |
| 2026-04-23 04:49 | 30.50326 | -81.67615 | 37 ft | 12 kts | 124° |
| 2026-04-23 04:49 | 30.49259 | -81.71153 | 276 ft | 149 kts | 72° |
| 2026-04-23 04:49 | 30.49596 | -81.70041 | 103 ft | 141 kts | 69° |
| 2026-04-23 04:49 | 30.49918 | -81.69022 | 44 ft | 130 kts | 70° |
| 2026-04-23 04:50 | 30.50186 | -81.68156 | 44 ft | 68 kts | 70° |
| 2026-04-23 04:50 | 30.49420 | -81.70585 | 168 ft | 147 kts | 71° |
| 2026-04-23 04:50 | 30.49763 | -81.69522 | 47 ft | 134 kts | 70° |
| 2026-04-23 04:50 | 30.49929 | -81.68986 | 43 ft | 97 kts | 70° |